Time;durP1;ratioP1;P1;durP2;ratioP2;P2;SDS_P1;SDS_P2;PMS_P1;PMS_P2;Temp;Humidity;BMP_temperature;BMP_pressure;BME280_temperature;BME280_humidity;BME280_pressure;Samples;Min_cycle;Max_cycle;Signal;HPM_P1;HPM_P2
2023/06/24 00:02:13;;;;;;;;;;;;;;;;;;5091365;28;19999;-69
2023/06/24 00:04:39;;;;;;;;;;;;;;;;;;5090767;28;20005;-69
2023/06/24 00:07:06;;;;;;;;;;;;;;;;;;5091043;28;20356;-69
2023/06/24 00:11:50;;;;;;;;;;;;;;;;;;5091126;28;19923;-69
2023/06/24 00:14:29;;;;;;;;;;;;;;;;;;5112277;27;19916;-69
2023/06/24 00:16:56;;;;;;;;;;;;;;;;;;5112363;28;20397;-69
2023/06/24 00:19:22;;;;;;;;;;;;;;;;;;5111261;28;19939;-69
2023/06/24 00:21:47;;;;;;;;;;;;;;;;;;5111668;28;19951;-69
2023/06/24 00:24:13;;;;;;;;;;;;;;;;;;5111195;28;19908;-69
2023/06/24 00:32:32;;;;;;;;;;;;;;;;;;5131932;27;19912;-70
2023/06/24 00:34:59;;;;;;;;;;;;;;;;;;5132257;28;19916;-69
2023/06/24 00:37:25;;;;;;;;;;;;;;;;;;5130802;28;20253;-69
2023/06/24 00:39:51;;;;;;;;;;;;;;;;;;5131695;28;19914;-69
2023/06/24 00:42:17;;;;;;;;;;;;;;;;;;5132029;28;19943;-69
2023/06/24 00:46:15;;;;;;;;;;;;;;;;;;5090967;28;20410;-69
2023/06/24 00:48:41;;;;;;;;;;;;;;;;;;5091233;28;19913;-69
2023/06/24 00:51:50;;;;;;;;;;;;;;;;;;5091703;28;19923;-70
2023/06/24 00:54:15;;;;;;;;;;;;;;;;;;5090931;28;19912;-69
2023/06/24 00:56:42;;;;;;;;;;;;;;;;;;5091363;28;19909;-69
2023/06/24 00:59:08;;;;;;;;;;;;;;;;;;5092456;28;20383;-69
2023/06/24 01:02:52;;;;;;;;;;;;;;;;;;5074342;28;19919;-69
2023/06/24 01:07:16;;;;;;;;;;;;;;;;;;5091933;27;19916;-69
2023/06/24 01:14:54;;;;;;;;;;;;;;;;;;5111490;27;19916;-69
2023/06/24 01:17:20;;;;;;;;;;;;;;;;;;5111802;28;20007;-69
2023/06/24 01:20:10;;;;;;;;;;;;;;;;;;5092317;27;19923;-69
2023/06/24 01:24:40;;;;;;;;;;;;;;;;;;5091577;27;19917;-69
2023/06/24 01:27:06;;;;;;;;;;;;;;;;;;5091428;28;20003;-69
2023/06/24 01:29:32;;;;;;;;;;;;;;;;;;5090845;28;19959;-69
2023/06/24 01:33:14;;;;;;;;;;;;;;;;;;5091699;27;20303;-69
2023/06/24 01:35:40;;;;;;;;;;;;;;;;;;5090901;28;20006;-69
2023/06/24 01:38:06;;;;;;;;;;;;;;;;;;5091264;28;19909;-69
2023/06/24 01:40:32;;;;;;;;;;;;;;;;;;5091301;28;20011;-69
2023/06/24 01:47:03;;;;;;;;;;;;;;;;;;5091731;28;19923;-69
2023/06/24 01:49:29;;;;;;;;;;;;;;;;;;5090916;28;19999;-69
2023/06/24 01:53:42;;;;;;;;;;;;;;;;;;5091958;27;20376;-69
2023/06/24 01:56:08;;;;;;;;;;;;;;;;;;5091017;28;20368;-69
2023/06/24 02:00:01;;;;;;;;;;;;;;;;;;5091938;27;19916;-69
2023/06/24 02:10:10;;;;;;;;;;;;;;;;;;5091165;27;20296;-69
2023/06/24 02:16:14;;;;;;;;;;;;;;;;;;5111799;27;19916;-71
2023/06/24 02:20:27;;;;;;;;;;;;;;;;;;5051908;28;20285;-69
2023/06/24 02:29:22;;;;;;;;;;;;;;;;;;5091876;27;19916;-69
2023/06/24 02:31:48;;;;;;;;;;;;;;;;;;5090975;28;19995;-70
2023/06/24 02:35:36;;;;;;;;;;;;;;;;;;5112364;27;19916;-69
2023/06/24 02:38:03;;;;;;;;;;;;;;;;;;5111374;28;19988;-69
2023/06/24 02:43:27;;;;;;;;;;;;;;;;;;5111728;27;19916;-69
2023/06/24 02:46:29;;;;;;;;;;;;;;;;;;5091103;27;20287;-69
2023/06/24 02:48:55;;;;;;;;;;;;;;;;;;5091276;28;19912;-69
2023/06/24 02:51:21;;;;;;;;;;;;;;;;;;5091203;28;19985;-69
2023/06/24 02:54:58;;;;;;;;;;;;;;;;;;5132297;27;20006;-68
2023/06/24 03:07:24;;;;;;;;;;;;;;;;;;5132003;27;19915;-69
2023/06/24 03:09:50;;;;;;;;;;;;;;;;;;5132181;28;19916;-68
2023/06/24 03:15:42;;;;;;;;;;;;;;;;;;5091741;27;19922;-69
2023/06/24 03:18:08;;;;;;;;;;;;;;;;;;5091520;28;19995;-69
2023/06/24 03:20:38;;;;;;;;;;;;;;;;;;5091263;28;20415;-69
2023/06/24 03:23:04;;;;;;;;;;;;;;;;;;5091225;28;19908;-69
2023/06/24 03:27:03;;;;;;;;;;;;;;;;;;5091915;27;19919;-69
2023/06/24 03:29:56;;;;;;;;;;;;;;;;;;5113158;27;20372;-70
2023/06/24 03:34:03;;;;;;;;;;;;;;;;;;5091674;27;20296;-69
2023/06/24 03:36:29;;;;;;;;;;;;;;;;;;5090884;28;20007;-69
2023/06/24 03:38:55;;;;;;;;;;;;;;;;;;5091445;28;19998;-69
2023/06/24 03:41:21;;;;;;;;;;;;;;;;;;5090782;28;19909;-69
2023/06/24 03:46:13;;;;;;;;;;;;;;;;;;5091468;27;19935;-69
2023/06/24 03:48:53;;;;;;;;;;;;;;;;;;5111682;27;19916;-69
2023/06/24 03:51:19;;;;;;;;;;;;;;;;;;5111945;28;19919;-69
2023/06/24 03:53:45;;;;;;;;;;;;;;;;;;5111892;28;19908;-69
2023/06/24 04:03:14;;;;;;;;;;;;;;;;;;5091408;28;20392;-69
2023/06/24 04:07:41;;;;;;;;;;;;;;;;;;5091460;27;20311;-69
2023/06/24 04:10:08;;;;;;;;;;;;;;;;;;5090922;28;19916;-69
2023/06/24 04:14:46;;;;;;;;;;;;;;;;;;5112480;27;19912;-69
2023/06/24 04:17:12;;;;;;;;;;;;;;;;;;5111378;28;20018;-69
2023/06/24 04:20:40;;;;;;;;;;;;;;;;;;5091385;27;19912;-69
2023/06/24 04:27:35;;;;;;;;;;;;;;;;;;5112125;27;19912;-68
2023/06/24 04:34:44;;;;;;;;;;;;;;;;;;5111765;27;19916;-69
2023/06/24 04:38:07;;;;;;;;;;;;;;;;;;5111427;27;19916;-69
2023/06/24 04:43:10;;;;;;;;;;;;;;;;;;5112034;27;19916;-69
2023/06/24 04:45:35;;;;;;;;;;;;;;;;;;5111261;28;20353;-69
2023/06/24 04:48:01;;;;;;;;;;;;;;;;;;5110499;28;19961;-69
2023/06/24 04:50:27;;;;;;;;;;;;;;;;;;5111723;28;19915;-70
2023/06/24 04:52:56;;;;;;;;;;;;;;;;;;5109824;28;19912;-69
2023/06/24 04:55:22;;;;;;;;;;;;;;;;;;5111411;28;19908;-69
2023/06/24 04:57:48;;;;;;;;;;;;;;;;;;5111379;28;19908;-69
2023/06/24 05:00:58;;;;;;;;;;;;;;;;;;5091609;27;19912;-69
2023/06/24 05:10:06;;;;;;;;;;;;;;;;;;5111908;27;19916;-69
2023/06/24 05:16:35;;;;;;;;;;;;;;;;;;5091486;27;19922;-69
2023/06/24 05:19:43;;;;;;;;;;;;;;;;;;5111409;27;19912;-69
2023/06/24 05:22:09;;;;;;;;;;;;;;;;;;5127541;28;19912;-69
2023/06/24 05:26:00;;;;;;;;;;;;;;;;;;5091356;27;20295;-69
2023/06/24 05:28:26;;;;;;;;;;;;;;;;;;5091046;28;19928;-70
2023/06/24 05:32:10;;;;;;;;;;;;;;;;;;5091909;28;19942;-70
2023/06/24 05:34:36;;;;;;;;;;;;;;;;;;5090996;28;20457;-69
2023/06/24 05:37:28;;;;;;;;;;;;;;;;;;5132810;27;20350;-69
2023/06/24 05:39:55;;;;;;;;;;;;;;;;;;5132389;28;19955;-70
2023/06/24 05:42:22;;;;;;;;;;;;;;;;;;5131878;28;19930;-70
2023/06/24 05:47:01;;;;;;;;;;;;;;;;;;5111778;27;19912;-69
2023/06/24 05:50:39;;;;;;;;;;;;;;;;;;5153583;27;20002;-70
2023/06/24 05:53:05;;;;;;;;;;;;;;;;;;5152885;27;20379;-70
2023/06/24 05:55:31;;;;;;;;;;;;;;;;;;5152579;27;19907;-69
2023/06/24 05:57:57;;;;;;;;;;;;;;;;;;5152833;27;20464;-69
2023/06/24 06:00:23;;;;;;;;;;;;;;;;;;5152724;27;19960;-69
2023/06/24 06:02:49;;;;;;;;;;;;;;;;;;5152345;27;20355;-70
2023/06/24 06:05:15;;;;;;;;;;;;;;;;;;5134112;27;19915;-70
2023/06/24 06:08:22;;;;;;;;;;;;;;;;;;5092253;27;19938;-69
2023/06/24 06:10:48;;;;;;;;;;;;;;;;;;5090962;28;20440;-69
2023/06/24 06:15:37;;;;;;;;;;;;;;;;;;5091948;28;19923;-69
2023/06/24 06:24:49;;;;;;;;;;;;;;;;;;5091186;27;19923;-69
2023/06/24 06:28:01;;;;;;;;;;;;;;;;;;5112222;27;19916;-69
2023/06/24 06:32:19;;;;;;;;;;;;;;;;;;5091485;27;19923;-69
2023/06/24 06:34:45;;;;;;;;;;;;;;;;;;5091368;28;20003;-69
2023/06/24 06:37:11;;;;;;;;;;;;;;;;;;5091144;28;19977;-69
2023/06/24 06:41:33;;;;;;;;;;;;;;;;;;5092447;27;20253;-69
2023/06/24 06:43:58;;;;;;;;;;;;;;;;;;5091325;28;20003;-69
2023/06/24 06:48:42;;;;;;;;;;;;;;;;;;5111904;27;19916;-69
2023/06/24 06:52:56;;;;;;;;;;;;;;;;;;5111247;27;19916;-69
2023/06/24 06:55:22;;;;;;;;;;;;;;;;;;5110308;28;19919;-69
2023/06/24 06:57:48;;;;;;;;;;;;;;;;;;5111797;28;19961;-70
2023/06/24 07:00:14;;;;;;;;;;;;;;;;;;5109872;28;20431;-69
2023/06/24 07:05:58;;;;;;;;;;;;;;;;;;5111717;27;19912;-69
2023/06/24 07:08:24;;;;;;;;;;;;;;;;;;5111769;28;19912;-70
2023/06/24 07:10:50;;;;;;;;;;;;;;;;;;5111793;28;20291;-69
2023/06/24 07:13:16;;;;;;;;;;;;;;;;;;5111161;28;19935;-70
2023/06/24 07:16:32;;;;;;;;;;;;;;;;;;5091650;27;19916;-69
2023/06/24 07:18:58;;;;;;;;;;;;;;;;;;5091221;28;20003;-70
2023/06/24 07:23:36;;;;;;;;;;;;;;;;;;5091719;28;19922;-69
2023/06/24 07:26:02;;;;;;;;;;;;;;;;;;5091371;28;19999;-71
2023/06/24 07:28:28;;;;;;;;;;;;;;;;;;5090840;28;19908;-70
2023/06/24 07:30:54;;;;;;;;;;;;;;;;;;5091441;28;20011;-70
2023/06/24 07:34:49;;;;;;;;;;;;;;;;;;5090994;27;19938;-70
2023/06/24 07:37:15;;;;;;;;;;;;;;;;;;5091291;28;20325;-69
2023/06/24 07:39:41;;;;;;;;;;;;;;;;;;5091220;28;19999;-69
2023/06/24 07:42:07;;;;;;;;;;;;;;;;;;5090924;28;20331;-70
2023/06/24 07:44:33;;;;;;;;;;;;;;;;;;5089830;28;20273;-69
2023/06/24 07:50:36;;;;;;;;;;;;;;;;;;5091889;27;20300;-69
2023/06/24 07:53:02;;;;;;;;;;;;;;;;;;5091365;28;20003;-69
2023/06/24 07:55:28;;;;;;;;;;;;;;;;;;5091943;28;19915;-69
2023/06/24 07:57:54;;;;;;;;;;;;;;;;;;5091479;28;19988;-71
2023/06/24 08:00:20;;;;;;;;;;;;;;;;;;5091576;28;19908;-70
2023/06/24 08:02:45;;;;;;;;;;;;;;;;;;5090073;28;19981;-69
2023/06/24 08:05:11;;;;;;;;;;;;;;;;;;5091786;28;19912;-70
2023/06/24 08:07:37;;;;;;;;;;;;;;;;;;5091296;28;19915;-70
2023/06/24 08:12:19;;;;;;;;;;;;;;;;;;5092444;28;19922;-69
2023/06/24 08:14:44;;;;;;;;;;;;;;;;;;5091955;28;20003;-69
2023/06/24 08:17:10;;;;;;;;;;;;;;;;;;5091895;28;19908;-69
2023/06/24 08:19:36;;;;;;;;;;;;;;;;;;5091568;28;19914;-69
2023/06/24 08:22:02;;;;;;;;;;;;;;;;;;5091507;28;20012;-69
2023/06/24 08:24:28;;;;;;;;;;;;;;;;;;5090945;28;19919;-69
2023/06/24 08:26:54;;;;;;;;;;;;;;;;;;5091273;28;19951;-69
2023/06/24 08:29:20;;;;;;;;;;;;;;;;;;5090970;28;19909;-69
2023/06/24 08:31:46;;;;;;;;;;;;;;;;;;5090533;28;19974;-70
2023/06/24 08:34:12;;;;;;;;;;;;;;;;;;5090869;28;19948;-69
2023/06/24 08:36:38;;;;;;;;;;;;;;;;;;5090589;28;20474;-69
2023/06/24 08:39:04;;;;;;;;;;;;;;;;;;5091067;28;20281;-70
2023/06/24 08:41:30;;;;;;;;;;;;;;;;;;5091238;28;19908;-70
2023/06/24 08:43:56;;;;;;;;;;;;;;;;;;5089580;28;19912;-69
2023/06/24 08:46:22;;;;;;;;;;;;;;;;;;5091023;28;19931;-70
2023/06/24 08:48:48;;;;;;;;;;;;;;;;;;5090957;28;19908;-70
2023/06/24 08:51:14;;;;;;;;;;;;;;;;;;5091080;28;20372;-70
2023/06/24 08:53:40;;;;;;;;;;;;;;;;;;5091044;28;20288;-69
2023/06/24 08:56:06;;;;;;;;;;;;;;;;;;5090897;28;20202;-69
2023/06/24 08:58:31;;;;;;;;;;;;;;;;;;5090556;28;20267;-70
2023/06/24 09:00:57;;;;;;;;;;;;;;;;;;5091048;28;19909;-70
2023/06/24 09:03:23;;;;;;;;;;;;;;;;;;5091633;28;19912;-70
2023/06/24 09:05:49;;;;;;;;;;;;;;;;;;5090691;28;19916;-72
2023/06/24 09:08:20;;;;;;;;;;;;;;;;;;5091640;28;19954;-71
2023/06/24 09:10:46;;;;;;;;;;;;;;;;;;5099348;28;19920;-69
2023/06/24 09:13:12;;;;;;;;;;;;;;;;;;5092965;28;19986;-70
2023/06/24 09:15:38;;;;;;;;;;;;;;;;;;5111456;28;19920;-70
2023/06/24 09:18:04;;;;;;;;;;;;;;;;;;5111218;28;20280;-70
2023/06/24 09:20:31;;;;;;;;;;;;;;;;;;5110649;28;19908;-71
2023/06/24 09:23:22;;;;;;;;;;;;;;;;;;5112409;27;19916;-70
2023/06/24 09:25:48;;;;;;;;;;;;;;;;;;5111555;28;20428;-70
2023/06/24 09:28:14;;;;;;;;;;;;;;;;;;5111831;28;20322;-70
2023/06/24 09:30:40;;;;;;;;;;;;;;;;;;5110462;28;20329;-70
2023/06/24 09:33:05;;;;;;;;;;;;;;;;;;5111669;28;20412;-69
2023/06/24 09:35:31;;;;;;;;;;;;;;;;;;5111762;28;20367;-69
2023/06/24 09:37:59;;;;;;;;;;;;;;;;;;5110253;28;19908;-69
2023/06/24 09:40:25;;;;;;;;;;;;;;;;;;5111074;28;20225;-70
2023/06/24 09:42:51;;;;;;;;;;;;;;;;;;5111638;28;19923;-70
2023/06/24 09:45:17;;;;;;;;;;;;;;;;;;5110202;28;19908;-69
2023/06/24 09:47:43;;;;;;;;;;;;;;;;;;5110951;28;19915;-70
2023/06/24 09:50:08;;;;;;;;;;;;;;;;;;5109948;28;19912;-70
2023/06/24 09:52:34;;;;;;;;;;;;;;;;;;5111338;28;19961;-70
2023/06/24 09:55:00;;;;;;;;;;;;;;;;;;5110717;28;19909;-70
2023/06/24 09:57:26;;;;;;;;;;;;;;;;;;5109844;28;20010;-70
2023/06/24 09:59:52;;;;;;;;;;;;;;;;;;5111052;28;20020;-70
2023/06/24 10:02:18;;;;;;;;;;;;;;;;;;5110529;28;19961;-70
2023/06/24 10:04:44;;;;;;;;;;;;;;;;;;5110878;28;19912;-70
2023/06/24 10:07:10;;;;;;;;;;;;;;;;;;5111069;28;19908;-70
2023/06/24 10:09:36;;;;;;;;;;;;;;;;;;5110593;28;19908;-70
2023/06/24 10:12:02;;;;;;;;;;;;;;;;;;5110796;28;19912;-70
2023/06/24 10:14:28;;;;;;;;;;;;;;;;;;5110704;28;19915;-70
2023/06/24 10:16:54;;;;;;;;;;;;;;;;;;5109042;28;20357;-70
2023/06/24 10:19:21;;;;;;;;;;;;;;;;;;5110625;28;20372;-71
2023/06/24 10:21:47;;;;;;;;;;;;;;;;;;5110512;28;20041;-70
2023/06/24 10:24:13;;;;;;;;;;;;;;;;;;5110368;28;19921;-70
2023/06/24 10:26:39;;;;;;;;;;;;;;;;;;5110575;28;19940;-70
2023/06/24 10:29:05;;;;;;;;;;;;;;;;;;5110091;28;19960;-69
2023/06/24 10:31:31;;;;;;;;;;;;;;;;;;5110822;28;19916;-70
2023/06/24 10:33:57;;;;;;;;;;;;;;;;;;5100992;28;19959;-70
2023/06/24 10:36:23;;;;;;;;;;;;;;;;;;5096327;28;19908;-70
2023/06/24 10:38:49;;;;;;;;;;;;;;;;;;5096700;28;19951;-70
2023/06/24 10:41:15;;;;;;;;;;;;;;;;;;5096862;28;19957;-70
2023/06/24 10:43:41;;;;;;;;;;;;;;;;;;5096313;28;19919;-70
2023/06/24 10:46:07;;;;;;;;;;;;;;;;;;5096894;28;20334;-70
2023/06/24 10:48:33;;;;;;;;;;;;;;;;;;5097180;28;19908;-70
2023/06/24 10:50:59;;;;;;;;;;;;;;;;;;5096186;28;20390;-70
2023/06/24 10:53:25;;;;;;;;;;;;;;;;;;5096557;28;20295;-70
2023/06/24 10:55:51;;;;;;;;;;;;;;;;;;5095038;28;19908;-69
2023/06/24 10:58:17;;;;;;;;;;;;;;;;;;5096253;28;19915;-69
2023/06/24 11:00:43;;;;;;;;;;;;;;;;;;5096283;28;19957;-69
2023/06/24 11:03:09;;;;;;;;;;;;;;;;;;5094909;28;19967;-69
2023/06/24 11:05:35;;;;;;;;;;;;;;;;;;5095705;28;20004;-69
2023/06/24 11:08:01;;;;;;;;;;;;;;;;;;5096280;28;19916;-70
2023/06/24 11:10:27;;;;;;;;;;;;;;;;;;5096068;28;20006;-70
2023/06/24 11:12:53;;;;;;;;;;;;;;;;;;5095734;28;19908;-71
2023/06/24 11:15:19;;;;;;;;;;;;;;;;;;5096028;28;20015;-70
2023/06/24 11:17:45;;;;;;;;;;;;;;;;;;5096236;28;19908;-70
2023/06/24 11:20:11;;;;;;;;;;;;;;;;;;5095442;28;19930;-71
2023/06/24 11:22:37;;;;;;;;;;;;;;;;;;5095522;28;19927;-69
2023/06/24 11:25:03;;;;;;;;;;;;;;;;;;5095829;28;19912;-69
2023/06/24 11:27:29;;;;;;;;;;;;;;;;;;5095390;28;19908;-69
2023/06/24 11:29:55;;;;;;;;;;;;;;;;;;5096036;28;20368;-69
2023/06/24 11:32:21;;;;;;;;;;;;;;;;;;5095695;28;19916;-69
2023/06/24 11:34:47;;;;;;;;;;;;;;;;;;5095647;28;20361;-69
2023/06/24 11:37:13;;;;;;;;;;;;;;;;;;5095692;28;19908;-69
2023/06/24 11:39:39;;;;;;;;;;;;;;;;;;5095074;28;19958;-69
2023/06/24 11:42:05;;;;;;;;;;;;;;;;;;5095371;28;20011;-70
2023/06/24 11:44:31;;;;;;;;;;;;;;;;;;5094650;28;19943;-70
2023/06/24 11:46:57;;;;;;;;;;;;;;;;;;5094688;28;19962;-70
2023/06/24 11:49:23;;;;;;;;;;;;;;;;;;5094028;28;20010;-70
2023/06/24 11:51:49;;;;;;;;;;;;;;;;;;5095416;28;19908;-70
2023/06/24 11:54:15;;;;;;;;;;;;;;;;;;5094994;28;19954;-69
2023/06/24 11:56:41;;;;;;;;;;;;;;;;;;5095645;28;19920;-70
2023/06/24 11:59:07;;;;;;;;;;;;;;;;;;5094139;28;19908;-70
2023/06/24 12:01:33;;;;;;;;;;;;;;;;;;5094925;28;19916;-70
2023/06/24 12:03:59;;;;;;;;;;;;;;;;;;5095223;28;19915;-70
2023/06/24 12:06:25;;;;;;;;;;;;;;;;;;5095181;28;19908;-70
2023/06/24 12:08:51;;;;;;;;;;;;;;;;;;5094653;28;19908;-70
2023/06/24 12:11:17;;;;;;;;;;;;;;;;;;5095013;28;19916;-70
2023/06/24 12:13:43;;;;;;;;;;;;;;;;;;5094893;28;19908;-70
2023/06/24 12:16:09;;;;;;;;;;;;;;;;;;5094477;28;20007;-70
2023/06/24 12:18:34;;;;;;;;;;;;;;;;;;5095366;28;20356;-70
2023/06/24 12:21:00;;;;;;;;;;;;;;;;;;5094514;28;20436;-69
2023/06/24 12:23:26;;;;;;;;;;;;;;;;;;5093060;28;20265;-70
2023/06/24 12:25:52;;;;;;;;;;;;;;;;;;5094626;28;19979;-70
2023/06/24 12:28:18;;;;;;;;;;;;;;;;;;5094636;28;20021;-70
2023/06/24 12:30:44;;;;;;;;;;;;;;;;;;5094191;28;19908;-70
2023/06/24 12:33:10;;;;;;;;;;;;;;;;;;5093150;28;19916;-71
2023/06/24 12:35:36;;;;;;;;;;;;;;;;;;5094755;28;19912;-70
2023/06/24 12:38:02;;;;;;;;;;;;;;;;;;5094101;28;19920;-70
2023/06/24 12:40:28;;;;;;;;;;;;;;;;;;5094485;28;19908;-70
2023/06/24 12:42:54;;;;;;;;;;;;;;;;;;5094041;28;19916;-70
2023/06/24 12:45:20;;;;;;;;;;;;;;;;;;5094363;28;20248;-71
2023/06/24 12:47:46;;;;;;;;;;;;;;;;;;5094351;28;19908;-70
2023/06/24 12:50:12;;;;;;;;;;;;;;;;;;5094033;28;19999;-71
2023/06/24 12:52:38;;;;;;;;;;;;;;;;;;5094609;28;20369;-70
2023/06/24 12:55:04;;;;;;;;;;;;;;;;;;5094244;28;20287;-70
2023/06/24 12:57:30;;;;;;;;;;;;;;;;;;5093914;28;20002;-70
2023/06/24 12:59:56;;;;;;;;;;;;;;;;;;5094278;28;19908;-70
2023/06/24 13:02:22;;;;;;;;;;;;;;;;;;5094371;28;19920;-70
2023/06/24 13:04:48;;;;;;;;;;;;;;;;;;5094089;28;19916;-70
2023/06/24 13:07:14;;;;;;;;;;;;;;;;;;5094286;28;19908;-70
2023/06/24 13:09:40;;;;;;;;;;;;;;;;;;5094360;28;19915;-70
2023/06/24 13:12:07;;;;;;;;;;;;;;;;;;5093762;28;19919;-70
2023/06/24 13:14:33;;;;;;;;;;;;;;;;;;5094312;28;20296;-70
2023/06/24 13:16:59;;;;;;;;;;;;;;;;;;5094465;28;19918;-70
2023/06/24 13:19:25;;;;;;;;;;;;;;;;;;5092235;28;19912;-70
2023/06/24 13:21:51;;;;;;;;;;;;;;;;;;5093846;28;20394;-70
2023/06/24 13:24:17;;;;;;;;;;;;;;;;;;5093911;28;19951;-70
2023/06/24 13:26:44;;;;;;;;;;;;;;;;;;5092172;28;19917;-70
2023/06/24 13:29:10;;;;;;;;;;;;;;;;;;5093805;28;19908;-70
2023/06/24 13:31:36;;;;;;;;;;;;;;;;;;5092516;28;20360;-70
2023/06/24 13:34:02;;;;;;;;;;;;;;;;;;5092141;28;19912;-70
2023/06/24 13:36:28;;;;;;;;;;;;;;;;;;5093642;28;19909;-70
2023/06/24 13:38:54;;;;;;;;;;;;;;;;;;5093690;28;19909;-70
2023/06/24 13:41:20;;;;;;;;;;;;;;;;;;5093356;28;20402;-70
2023/06/24 13:43:46;;;;;;;;;;;;;;;;;;5092576;28;20330;-70
2023/06/24 13:46:12;;;;;;;;;;;;;;;;;;5093208;28;19912;-71
2023/06/24 13:48:38;;;;;;;;;;;;;;;;;;5094246;28;19908;-71
2023/06/24 13:51:06;;;;;;;;;;;;;;;;;;5092332;28;19961;-71
2023/06/24 13:53:32;;;;;;;;;;;;;;;;;;5093461;28;19977;-70
2023/06/24 13:55:58;;;;;;;;;;;;;;;;;;5093628;28;19988;-70
2023/06/24 13:58:24;;;;;;;;;;;;;;;;;;5093551;28;20288;-70
2023/06/24 14:00:50;;;;;;;;;;;;;;;;;;5093304;28;19909;-70
2023/06/24 14:03:16;;;;;;;;;;;;;;;;;;5093575;28;19963;-70
2023/06/24 14:05:42;;;;;;;;;;;;;;;;;;5093536;28;19916;-70
2023/06/24 14:08:08;;;;;;;;;;;;;;;;;;5094018;28;20280;-70
2023/06/24 14:10:34;;;;;;;;;;;;;;;;;;5097444;28;20280;-69
2023/06/24 14:13:00;;;;;;;;;;;;;;;;;;5095993;28;19973;-70
2023/06/24 14:15:25;;;;;;;;;;;;;;;;;;5096793;28;19995;-70
2023/06/24 14:17:51;;;;;;;;;;;;;;;;;;5097198;28;19919;-69
2023/06/24 14:20:17;;;;;;;;;;;;;;;;;;5097249;28;19908;-71
2023/06/24 14:22:44;;;;;;;;;;;;;;;;;;5096419;28;19927;-71
2023/06/24 14:25:10;;;;;;;;;;;;;;;;;;5097029;28;19909;-71
2023/06/24 14:27:37;;;;;;;;;;;;;;;;;;5097052;28;19955;-71
2023/06/24 14:30:02;;;;;;;;;;;;;;;;;;5096598;28;19908;-71
2023/06/24 14:32:28;;;;;;;;;;;;;;;;;;5097066;28;19915;-71
2023/06/24 14:34:54;;;;;;;;;;;;;;;;;;5097105;28;19908;-71
2023/06/24 14:37:20;;;;;;;;;;;;;;;;;;5095137;28;19908;-71
2023/06/24 14:39:46;;;;;;;;;;;;;;;;;;5097420;28;19915;-71
2023/06/24 14:42:12;;;;;;;;;;;;;;;;;;5096637;28;19967;-71
2023/06/24 14:44:38;;;;;;;;;;;;;;;;;;5096286;28;20003;-70
2023/06/24 14:47:04;;;;;;;;;;;;;;;;;;5096656;28;19912;-71
2023/06/24 14:49:30;;;;;;;;;;;;;;;;;;5096313;28;19908;-70
2023/06/24 14:51:56;;;;;;;;;;;;;;;;;;5095224;28;19908;-69
2023/06/24 14:54:22;;;;;;;;;;;;;;;;;;5096500;28;19912;-71
2023/06/24 14:56:48;;;;;;;;;;;;;;;;;;5096117;28;19915;-71
2023/06/24 14:59:14;;;;;;;;;;;;;;;;;;5095082;28;20295;-71
2023/06/24 15:01:40;;;;;;;;;;;;;;;;;;5095030;28;19913;-71
2023/06/24 15:04:06;;;;;;;;;;;;;;;;;;5096302;28;19912;-71
2023/06/24 15:06:32;;;;;;;;;;;;;;;;;;5096294;28;20284;-70
2023/06/24 15:08:58;;;;;;;;;;;;;;;;;;5096174;28;19931;-70
2023/06/24 15:11:24;;;;;;;;;;;;;;;;;;5095831;28;19912;-69
2023/06/24 15:13:50;;;;;;;;;;;;;;;;;;5094939;28;19908;-71
2023/06/24 15:16:16;;;;;;;;;;;;;;;;;;5096119;28;19908;-70
2023/06/24 15:18:42;;;;;;;;;;;;;;;;;;5094841;28;20380;-70
2023/06/24 15:21:07;;;;;;;;;;;;;;;;;;5095987;28;20287;-69
2023/06/24 15:23:33;;;;;;;;;;;;;;;;;;5096255;28;19908;-70
2023/06/24 15:25:59;;;;;;;;;;;;;;;;;;5096228;28;19908;-70
2023/06/24 15:28:26;;;;;;;;;;;;;;;;;;5095926;28;19915;-70
2023/06/24 15:30:52;;;;;;;;;;;;;;;;;;5096085;28;19972;-70
2023/06/24 15:33:18;;;;;;;;;;;;;;;;;;5096581;28;20415;-71
2023/06/24 15:37:18;;;;;;;;;;;;;;;;;;5092392;27;20388;-71
2023/06/24 15:39:44;;;;;;;;;;;;;;;;;;5091476;28;19919;-70
2023/06/24 15:42:11;;;;;;;;;;;;;;;;;;5091928;28;19912;-70
2023/06/24 15:44:38;;;;;;;;;;;;;;;;;;5091733;28;20468;-70
2023/06/24 15:47:04;;;;;;;;;;;;;;;;;;5091873;28;20365;-70
2023/06/24 15:51:36;;;;;;;;;;;;;;;;;;5092558;27;19923;-70
2023/06/24 15:54:02;;;;;;;;;;;;;;;;;;5091316;28;19999;-70
2023/06/24 15:56:52;;;;;;;;;;;;;;;;;;5051578;28;19920;-69
2023/06/24 15:59:18;;;;;;;;;;;;;;;;;;5051197;28;19999;-69
2023/06/24 16:01:44;;;;;;;;;;;;;;;;;;5050752;28;19955;-70
2023/06/24 16:04:11;;;;;;;;;;;;;;;;;;5051451;28;19913;-71
2023/06/24 16:06:37;;;;;;;;;;;;;;;;;;5051105;28;20290;-71
2023/06/24 16:09:02;;;;;;;;;;;;;;;;;;5050565;28;19909;-70
2023/06/24 16:13:25;;;;;;;;;;;;;;;;;;5153112;27;20014;-69
2023/06/24 16:17:46;;;;;;;;;;;;;;;;;;5091961;27;20376;-69
2023/06/24 16:24:52;;;;;;;;;;;;;;;;;;5091473;27;19922;-69
2023/06/24 16:27:18;;;;;;;;;;;;;;;;;;5091311;28;19912;-69
2023/06/24 16:29:44;;;;;;;;;;;;;;;;;;5090821;28;19915;-69
2023/06/24 16:32:09;;;;;;;;;;;;;;;;;;5091533;28;19909;-69
2023/06/24 16:34:35;;;;;;;;;;;;;;;;;;5091261;28;20426;-69
2023/06/24 16:39:18;;;;;;;;;;;;;;;;;;5091495;27;19912;-69
2023/06/24 16:41:44;;;;;;;;;;;;;;;;;;5107190;28;19996;-69
2023/06/24 16:44:10;;;;;;;;;;;;;;;;;;5090866;28;19908;-69
2023/06/24 16:49:08;;;;;;;;;;;;;;;;;;5091667;27;19922;-69
2023/06/24 16:51:34;;;;;;;;;;;;;;;;;;5091407;28;19995;-69
2023/06/24 16:54:00;;;;;;;;;;;;;;;;;;5090015;28;19915;-69
2023/06/24 16:56:26;;;;;;;;;;;;;;;;;;5090889;28;19912;-69
2023/06/24 17:00:06;;;;;;;;;;;;;;;;;;5091615;27;19917;-68
2023/06/24 17:04:30;;;;;;;;;;;;;;;;;;5091210;27;20395;-70
2023/06/24 17:06:56;;;;;;;;;;;;;;;;;;5091260;28;20007;-69
2023/06/24 17:09:22;;;;;;;;;;;;;;;;;;5091342;28;19908;-69
2023/06/24 17:11:58;;;;;;;;;;;;;;;;;;5091103;27;20291;-69
2023/06/24 17:14:24;;;;;;;;;;;;;;;;;;5091415;28;20322;-70
2023/06/24 17:16:50;;;;;;;;;;;;;;;;;;5091862;28;19908;-70
2023/06/24 17:19:16;;;;;;;;;;;;;;;;;;5090924;28;19912;-70
2023/06/24 17:21:42;;;;;;;;;;;;;;;;;;5091244;28;19932;-70
2023/06/24 17:24:08;;;;;;;;;;;;;;;;;;5090767;28;19957;-70
2023/06/24 17:27:34;;;;;;;;;;;;;;;;;;5111865;27;19923;-70
2023/06/24 17:30:00;;;;;;;;;;;;;;;;;;5110354;28;19918;-69
2023/06/24 17:32:26;;;;;;;;;;;;;;;;;;5111214;28;20283;-69
2023/06/24 17:34:53;;;;;;;;;;;;;;;;;;5111687;28;19908;-69
2023/06/24 17:38:13;;;;;;;;;;;;;;;;;;5091548;27;19919;-70
2023/06/24 17:40:39;;;;;;;;;;;;;;;;;;5091363;28;20003;-70
2023/06/24 17:43:05;;;;;;;;;;;;;;;;;;5091226;28;19908;-70
2023/06/24 17:45:47;;;;;;;;;;;;;;;;;;5131966;27;19912;-69
2023/06/24 17:48:13;;;;;;;;;;;;;;;;;;5130896;28;19999;-69
2023/06/24 17:50:39;;;;;;;;;;;;;;;;;;5132153;28;19907;-69
2023/06/24 17:57:04;;;;;;;;;;;;;;;;;;5091682;27;19922;-69
2023/06/24 18:00:16;;;;;;;;;;;;;;;;;;5091230;27;19938;-71
2023/06/24 18:03:24;;;;;;;;;;;;;;;;;;5091491;27;19917;-69
2023/06/24 18:05:50;;;;;;;;;;;;;;;;;;5089997;28;19916;-70
2023/06/24 18:08:16;;;;;;;;;;;;;;;;;;5090780;28;19954;-69
2023/06/24 18:10:43;;;;;;;;;;;;;;;;;;5091262;28;19909;-69
2023/06/24 18:13:09;;;;;;;;;;;;;;;;;;5091194;28;19936;-71
2023/06/24 18:16:04;;;;;;;;;;;;;;;;;;5091505;27;19923;-70
2023/06/24 18:18:30;;;;;;;;;;;;;;;;;;5091303;28;19999;-69
2023/06/24 18:20:56;;;;;;;;;;;;;;;;;;5090864;28;19962;-69
2023/06/24 18:23:22;;;;;;;;;;;;;;;;;;5089911;28;20007;-69
2023/06/24 18:26:08;;;;;;;;;;;;;;;;;;5092100;28;19923;-70
2023/06/24 18:29:20;;;;;;;;;;;;;;;;;;5090962;27;20384;-70
2023/06/24 18:31:46;;;;;;;;;;;;;;;;;;5090104;28;20019;-70
2023/06/24 18:34:12;;;;;;;;;;;;;;;;;;5091275;28;19908;-69
2023/06/24 18:36:38;;;;;;;;;;;;;;;;;;5090854;28;19965;-69
2023/06/24 18:39:04;;;;;;;;;;;;;;;;;;5091079;28;19916;-69
2023/06/24 18:43:27;;;;;;;;;;;;;;;;;;5091095;27;19916;-69
2023/06/24 18:45:53;;;;;;;;;;;;;;;;;;5091327;28;19918;-69
2023/06/24 18:48:19;;;;;;;;;;;;;;;;;;5091172;28;19912;-69
2023/06/24 18:50:45;;;;;;;;;;;;;;;;;;5090951;28;19912;-70
2023/06/24 18:57:13;;;;;;;;;;;;;;;;;;5111528;27;19916;-70
2023/06/24 19:06:01;;;;;;;;;;;;;;;;;;5092141;27;19912;-70
2023/06/24 19:08:27;;;;;;;;;;;;;;;;;;5091473;28;19965;-71
2023/06/24 19:10:52;;;;;;;;;;;;;;;;;;5090999;28;19908;-70
2023/06/24 19:14:47;;;;;;;;;;;;;;;;;;5091996;27;19917;-70
2023/06/24 19:17:13;;;;;;;;;;;;;;;;;;5089940;28;20381;-69
2023/06/24 19:23:02;;;;;;;;;;;;;;;;;;5091913;27;20303;-69
2023/06/24 19:32:04;;;;;;;;;;;;;;;;;;5091386;27;19923;-69
2023/06/24 19:36:48;;;;;;;;;;;;;;;;;;5091483;27;20292;-69
2023/06/24 19:39:14;;;;;;;;;;;;;;;;;;5091122;28;20003;-69
2023/06/24 19:41:40;;;;;;;;;;;;;;;;;;5091248;28;19967;-69
2023/06/24 19:45:38;;;;;;;;;;;;;;;;;;5091261;28;19913;-69
2023/06/24 19:48:04;;;;;;;;;;;;;;;;;;5091371;28;19999;-69
2023/06/24 19:50:30;;;;;;;;;;;;;;;;;;5091266;28;19909;-69
2023/06/24 19:52:56;;;;;;;;;;;;;;;;;;5090875;28;19919;-69
2023/06/24 19:55:22;;;;;;;;;;;;;;;;;;5091533;28;20007;-70
2023/06/24 20:01:13;;;;;;;;;;;;;;;;;;5091405;28;20380;-70
2023/06/24 20:06:43;;;;;;;;;;;;;;;;;;5091287;27;19916;-69
2023/06/24 20:09:09;;;;;;;;;;;;;;;;;;5090077;28;20317;-71
2023/06/24 20:11:35;;;;;;;;;;;;;;;;;;5091286;28;19958;-69
2023/06/24 20:14:00;;;;;;;;;;;;;;;;;;5090848;28;19912;-69